LPMALPPS

Guest
Details From LPMA - Madeira
To LPPS - Porto Santo
Flight Number -
Tags Routegen Generated
Created
Modified
Stats Distance 31 nm / 58 km
Max Altitude 100 ft / 30 m
Waypoints 5
Social Downloads 15
Likes 0
Share VATSIM

Download

Looking for another format? Having issues loading an existing format? Contact us
Advertisement - Login to hide

Notes

Departing runway 4 LPMA. Arriving runway 17 LPPS.

Route

LPMA +32.76_-016.71 +32.87_-016.53 +32.99_-016.35 LPPS

ID Type Via Altitude Latitude Longitude Leg Dist Tot Dist Heading (true) Name
O LPMA APT - 0 ft / 0 m 32.70641˚ -16.76481˚ - 0 nm - -
+32.76_-016.71 LATLON - 100 ft / 30 m 32.75933˚ -16.70613˚ 4 nm 4 nm 43° / 43° -
+32.87_-016.53 LATLON - 100 ft / 30 m 32.87343˚ -16.52635˚ 11 nm 15 nm 53° / 53° -
+32.99_-016.35 LATLON - 100 ft / 30 m 32.98754˚ -16.34658˚ 11 nm 27 nm 53° / 53° -
O LPPS APT - 0 ft / 0 m 33.05987˚ -16.34941˚ 4 nm 31 nm 358° / 358° -

Altitude Profile

Advertisement - Login to hide

LPMA

Details ICAO LPMA (FNC)
Name Madeira
Region Portugal
Timezone Atlantic/Madeira (UTC+1.0)
Stats Elevation 192 ft / 59 m (AMSL)
Location 32.697704° -16.774449°
Runways 1
Magnetic Variation 4.927° W

METAR

LPMA 260500Z 36010KT 340V040 9999 SCT016 SCT030 17/10 Q1018

Decode

TAF

TAF LPMA 252300Z 2600/2624 36012KT 9999 SCT016 SCT030 TEMPO 2600/2624 BKN015 PROB30 TEMPO 2609/2618 36015G25KT

Decode

Departure Runways

ID Width Length Bearing (true) Bearing (mag) Surface Threshold Offset Overrun Length
05 141 ft / 43 m 8,683 ft / 2,647 m 42.98° 47.91° Asphalt 472 ft / 144 m 0 ft / 0 m
23 141 ft / 43 m 8,683 ft / 2,647 m 222.99° 227.92° Asphalt 466 ft / 142 m 0 ft / 0 m

LPPS

Details ICAO LPPS (PXO)
Name Porto Santo
Region Portugal
Timezone Atlantic/Madeira (UTC+1.0)
Stats Elevation 340 ft / 104 m (AMSL)
Location 33.073413° -16.349946°
Runways 1
Magnetic Variation 4.764° W

METAR

LPPS 260500Z 36013KT 9999 FEW015 BKN030 16/10 Q1018

Decode

TAF

TAF LPPS 252300Z 2600/2706 36015KT 9999 SCT015 SCT030

Decode

Destination Runways

ID Width Length Bearing (true) Bearing (mag) Surface Threshold Offset Overrun Length
18 148 ft / 45 m 9,890 ft / 3,014 m 178.11° 182.87° Asphalt 0 ft / 0 m 0 ft / 0 m
36 148 ft / 45 m 9,890 ft / 3,014 m 358.12° 2.88° Asphalt 0 ft / 0 m 499 ft / 152 m

Popular Alternatives